Time;durP1;ratioP1;P1;durP2;ratioP2;P2;SDS_P1;SDS_P2;PMS_P1;PMS_P2;Temp;Humidity;BMP_temperature;BMP_pressure;BME280_temperature;BME280_humidity;BME280_pressure;Samples;Min_cycle;Max_cycle;Signal;HPM_P1;HPM_P2
2023/03/09 00:02:04;;;;;;;12.52;6.07;;;2.90;99.90;;;;;;6151566;23;20413;-87
2023/03/09 00:04:31;;;;;;;12.35;6.05;;;2.80;99.90;;;;;;6126848;23;20064;-87
2023/03/09 00:06:57;;;;;;;12.68;6.28;;;2.80;99.90;;;;;;6151575;23;20096;-87
2023/03/09 00:09:22;;;;;;;12.07;6.68;;;2.80;99.90;;;;;;6150876;23;20022;-87
2023/03/09 00:11:49;;;;;;;12.82;6.28;;;2.80;99.90;;;;;;6151924;23;20326;-86
2023/03/09 00:14:18;;;;;;;12.88;6.35;;;2.80;99.90;;;;;;6151174;23;20022;-86
2023/03/09 00:16:44;;;;;;;12.52;6.32;;;2.80;99.90;;;;;;6151996;23;20465;-86
2023/03/09 00:19:09;;;;;;;12.80;6.35;;;2.80;99.90;;;;;;6152512;23;20101;-86
2023/03/09 00:21:39;;;;;;;12.82;6.25;;;2.80;99.90;;;;;;6152648;23;20049;-87
2023/03/09 00:24:08;;;;;;;13.68;6.80;;;2.80;99.90;;;;;;6152871;23;20067;-87
2023/03/09 00:26:36;;;;;;;15.25;7.43;;;2.80;99.90;;;;;;6128196;23;20477;-86
2023/03/09 00:29:03;;;;;;;12.48;6.65;;;2.70;99.90;;;;;;6152535;23;20014;-86
2023/03/09 00:31:29;;;;;;;13.48;7.45;;;2.70;99.90;;;;;;6153700;23;20425;-86
2023/03/09 00:33:54;;;;;;;14.25;7.32;;;2.70;99.90;;;;;;6152635;23;20049;-86
2023/03/09 00:36:20;;;;;;;13.43;7.10;;;2.70;99.90;;;;;;6153685;23;20064;-86
2023/03/09 00:38:53;;;;;;;15.15;7.88;;;2.70;99.90;;;;;;6152792;23;20017;-86
2023/03/09 00:41:19;;;;;;;;;;;2.70;99.90;;;;;;6153902;23;20028;-86
2023/03/09 00:43:45;;;;;;;13.40;7.05;;;2.70;99.90;;;;;;6153223;23;19924;-86
2023/03/09 00:46:11;;;;;;;14.35;7.82;;;2.70;99.90;;;;;;6153225;23;20017;-86
2023/03/09 00:48:37;;;;;;;13.45;6.55;;;2.60;99.90;;;;;;6128682;23;20068;-86
2023/03/09 00:51:04;;;;;;;14.02;6.93;;;2.60;99.90;;;;;;6153362;23;20014;-85
2023/03/09 00:53:29;;;;;;;16.70;7.55;;;2.60;99.90;;;;;;6127851;23;20045;-86
2023/03/09 00:55:55;;;;;;;14.48;7.13;;;2.60;99.90;;;;;;6153323;23;20025;-86
2023/03/09 00:58:20;;;;;;;14.88;8.18;;;2.60;99.90;;;;;;6152803;23;20516;-86
2023/03/09 01:00:46;;;;;;;14.07;7.50;;;2.60;99.90;;;;;;6153308;23;20102;-86
2023/03/09 01:03:12;;;;;;;16.38;7.70;;;2.50;99.90;;;;;;6153111;23;20025;-85
2023/03/09 01:05:38;;;;;;;16.08;6.72;;;2.50;99.90;;;;;;6152808;23;20010;-85
2023/03/09 01:08:03;;;;;;;15.80;7.50;;;2.50;99.90;;;;;;6152184;23;20033;-85
2023/03/09 01:10:29;;;;;;;14.05;7.72;;;2.50;99.90;;;;;;6153511;23;20013;-86
2023/03/09 01:12:55;;;;;;;12.30;6.53;;;2.50;99.90;;;;;;6153189;23;20104;-86
2023/03/09 01:15:21;;;;;;;14.45;7.53;;;2.50;99.90;;;;;;6128491;23;20025;-86
2023/03/09 01:17:49;;;;;;;13.68;7.10;;;2.50;99.90;;;;;;6128669;23;20020;-85
2023/03/09 01:20:15;;;;;;;12.95;6.60;;;2.40;99.90;;;;;;6152504;23;20023;-86
2023/03/09 01:22:40;;;;;;;13.65;6.75;;;2.40;99.90;;;;;;6153268;23;20057;-85
2023/03/09 01:25:06;;;;;;;13.43;6.60;;;2.40;99.90;;;;;;6152975;23;20018;-86
2023/03/09 01:27:32;;;;;;;11.98;6.03;;;2.40;99.90;;;;;;6128706;23;20471;-85
2023/03/09 01:29:58;;;;;;;13.75;6.15;;;2.40;99.90;;;;;;6154110;23;20338;-85
2023/03/09 01:32:25;;;;;;;13.93;6.35;;;2.40;99.90;;;;;;6152837;23;20327;-85
2023/03/09 01:34:51;;;;;;;13.90;7.32;;;2.40;99.90;;;;;;6128315;23;20018;-86
2023/03/09 01:37:17;;;;;;;14.20;6.95;;;2.40;99.90;;;;;;6128017;23;20457;-87
2023/03/09 01:39:43;;;;;;;13.75;6.65;;;2.40;99.90;;;;;;6152622;23;20024;-87
2023/03/09 01:42:09;;;;;;;14.55;6.72;;;2.30;99.90;;;;;;6153070;23;20016;-87
2023/03/09 01:44:35;;;;;;;14.73;7.43;;;2.30;99.90;;;;;;6152646;23;20028;-87
2023/03/09 01:47:01;;;;;;;12.90;6.25;;;2.30;99.90;;;;;;6152771;23;20013;-87
2023/03/09 01:49:47;;;;;;;13.00;6.60;;;2.40;99.90;;;;;;6152248;23;20029;-87
2023/03/09 01:52:25;;;;;;;13.10;6.47;;;2.30;99.90;;;;;;6152819;23;20044;-87
2023/03/09 01:55:00;;;;;;;14.57;7.25;;;2.30;99.90;;;;;;6152706;23;20017;-87
2023/03/09 01:57:32;;;;;;;13.50;7.18;;;2.30;99.90;;;;;;6127138;23;20018;-87
2023/03/09 02:00:05;;;;;;;14.13;7.10;;;2.30;99.90;;;;;;6152704;23;20064;-87
2023/03/09 02:02:35;;;;;;;13.75;6.95;;;2.30;99.90;;;;;;6128131;23;20024;-88
2023/03/09 02:05:04;;;;;;;14.40;6.78;;;2.40;99.90;;;;;;6127614;23;20009;-87
2023/03/09 02:07:34;;;;;;;14.95;6.95;;;2.30;99.90;;;;;;6152179;23;20653;-87
2023/03/09 02:10:17;;;;;;;14.88;8.00;;;2.30;99.90;;;;;;6127767;23;20132;-88
2023/03/09 02:12:52;;;;;;;15.07;7.63;;;2.30;99.90;;;;;;6128692;23;20017;-87
2023/03/09 02:15:18;;;;;;;14.63;7.85;;;2.30;99.90;;;;;;6127721;23;20033;-87
2023/03/09 02:17:44;;;;;;;17.90;7.45;;;2.30;99.90;;;;;;6152730;23;20041;-87
2023/03/09 02:20:19;;;;;;;15.00;7.63;;;2.30;99.90;;;;;;6152389;23;20082;-87
2023/03/09 02:22:45;;;;;;;14.23;6.97;;;2.30;99.90;;;;;;6127774;23;20028;-87
2023/03/09 02:25:28;;;;;;;13.63;6.35;;;2.30;99.90;;;;;;6152380;23;20029;-87
2023/03/09 02:27:54;;;;;;;14.65;7.15;;;2.20;99.90;;;;;;6151694;23;20022;-87
2023/03/09 02:30:21;;;;;;;14.93;6.28;;;2.20;99.90;;;;;;6128344;23;20405;-87
2023/03/09 02:32:47;;;;;;;15.68;7.03;;;2.20;99.90;;;;;;6152563;23;20018;-87
2023/03/09 02:35:12;;;;;;;14.70;6.88;;;2.20;99.90;;;;;;6151759;23;20476;-87
2023/03/09 02:37:40;;;;;;;14.50;6.97;;;2.20;99.90;;;;;;6152333;23;20547;-87
2023/03/09 02:40:23;;;;;;;14.45;7.05;;;2.20;99.90;;;;;;6127467;23;20017;-87
2023/03/09 02:42:50;;;;;;;14.32;7.22;;;2.20;99.90;;;;;;6152761;23;20014;-87
2023/03/09 02:45:19;;;;;;;13.50;6.95;;;2.20;99.90;;;;;;6127535;23;20053;-87
2023/03/09 02:47:46;;;;;;;14.25;6.43;;;2.20;99.90;;;;;;6127501;23;20095;-87
2023/03/09 02:50:12;;;;;;;14.40;7.10;;;2.20;99.90;;;;;;6152269;23;20017;-86
2023/03/09 02:52:37;;;;;;;13.48;6.93;;;2.30;99.90;;;;;;6127267;23;20010;-87
2023/03/09 02:55:05;;;;;;;14.73;7.22;;;2.20;99.90;;;;;;6127934;23;20088;-86
2023/03/09 02:57:31;;;;;;;13.40;6.88;;;2.20;99.90;;;;;;6151812;23;20331;-86
2023/03/09 02:59:56;;;;;;;14.45;6.38;;;2.20;99.90;;;;;;6152132;23;20030;-86
2023/03/09 03:02:22;;;;;;;14.70;7.80;;;2.20;99.90;;;;;;6127899;23;20353;-87
2023/03/09 03:04:47;;;;;;;14.55;7.20;;;2.20;99.90;;;;;;6126219;23;20018;-87
2023/03/09 03:07:13;;;;;;;13.80;7.22;;;2.20;99.90;;;;;;6151593;23;20056;-86
2023/03/09 03:09:39;;;;;;;15.13;7.40;;;2.30;99.90;;;;;;6126635;23;20112;-87
2023/03/09 03:12:05;;;;;;;14.73;7.38;;;2.20;99.90;;;;;;6153714;23;20374;-86
2023/03/09 03:14:30;;;;;;;18.33;7.15;;;2.20;99.90;;;;;;6127106;23;20013;-86
2023/03/09 03:16:56;;;;;;;12.98;6.32;;;2.20;99.90;;;;;;6126945;23;20107;-84
2023/03/09 03:19:22;;;;;;;15.63;7.15;;;2.20;99.90;;;;;;6151634;23;20047;-83
2023/03/09 03:21:48;;;;;;;14.27;7.32;;;2.30;99.90;;;;;;6151636;23;20024;-83
2023/03/09 03:24:14;;;;;;;15.15;7.68;;;2.30;99.90;;;;;;6127050;23;20017;-83
2023/03/09 03:26:40;;;;;;;14.63;6.65;;;2.20;99.90;;;;;;6126891;23;20017;-84
2023/03/09 03:29:06;;;;;;;14.48;8.00;;;2.30;99.90;;;;;;6151221;23;20548;-84
2023/03/09 03:31:32;;;;;;;15.15;8.18;;;2.20;99.90;;;;;;6151263;23;20041;-83
2023/03/09 03:33:58;;;;;;;16.65;8.32;;;2.30;99.90;;;;;;6151602;23;20021;-84
2023/03/09 03:36:24;;;;;;;15.68;8.43;;;2.20;99.90;;;;;;6151873;23;20018;-87
2023/03/09 03:38:50;;;;;;;17.83;7.53;;;2.20;99.90;;;;;;6151300;23;20048;-87
2023/03/09 03:41:15;;;;;;;16.15;8.88;;;2.30;99.90;;;;;;6127179;23;20028;-87
2023/03/09 03:43:41;;;;;;;18.92;9.25;;;2.30;99.90;;;;;;6150528;23;20472;-87
2023/03/09 03:46:07;;;;;;;16.70;9.05;;;2.20;99.90;;;;;;6125348;23;20017;-87
2023/03/09 03:48:32;;;;;;;16.85;8.48;;;2.20;99.90;;;;;;6150225;23;20017;-85
2023/03/09 03:50:58;;;;;;;17.40;9.18;;;2.30;99.90;;;;;;6125767;23;20013;-86
2023/03/09 03:53:23;;;;;;;17.02;8.40;;;2.20;99.90;;;;;;6151733;23;20017;-85
2023/03/09 03:55:49;;;;;;;17.15;8.20;;;2.20;99.90;;;;;;6151982;23;20119;-86
2023/03/09 03:58:14;;;;;;;15.55;8.52;;;2.20;99.90;;;;;;6125968;23;20017;-86
2023/03/09 04:00:40;;;;;;;18.77;8.90;;;2.20;99.90;;;;;;6151635;23;20045;-86
2023/03/09 04:03:06;;;;;;;19.73;9.48;;;2.20;99.90;;;;;;6150264;23;20064;-86
2023/03/09 04:05:32;;;;;;;18.52;8.32;;;2.20;99.90;;;;;;6152019;23;20018;-86
2023/03/09 04:07:58;;;;;;;17.88;9.40;;;2.20;99.90;;;;;;6125880;23;20076;-86
2023/03/09 04:10:23;;;;;;;17.63;9.05;;;2.20;99.90;;;;;;6152169;23;20017;-86
2023/03/09 04:12:50;;;;;;;17.02;8.55;;;2.20;99.90;;;;;;6151019;23;20334;-86
2023/03/09 04:15:16;;;;;;;18.52;9.13;;;2.30;99.90;;;;;;6127198;23;20551;-86
2023/03/09 04:17:41;;;;;;;20.92;9.48;;;2.20;99.90;;;;;;6150772;23;20060;-85
2023/03/09 04:20:08;;;;;;;17.02;8.57;;;2.30;99.90;;;;;;6151108;23;20020;-85
2023/03/09 04:22:34;;;;;;;18.80;9.43;;;2.20;99.90;;;;;;6151304;23;20416;-85
2023/03/09 04:24:59;;;;;;;17.63;8.27;;;2.20;99.90;;;;;;6151190;23;20453;-85
2023/03/09 04:27:25;;;;;;;15.98;8.05;;;2.30;99.90;;;;;;6150927;23;20031;-86
2023/03/09 04:29:50;;;;;;;18.77;7.95;;;2.30;99.90;;;;;;6150673;23;20017;-85
2023/03/09 04:32:16;;;;;;;18.10;8.82;;;2.30;99.90;;;;;;6151322;23;20024;-86
2023/03/09 04:34:42;;;;;;;19.55;10.38;;;2.30;99.90;;;;;;6151140;23;20013;-86
2023/03/09 04:37:07;;;;;;;18.08;8.85;;;2.30;99.90;;;;;;6151051;23;20461;-86
2023/03/09 04:39:34;;;;;;;16.42;9.00;;;2.30;99.90;;;;;;6151280;23;20097;-86
2023/03/09 04:42:00;;;;;;;17.67;9.48;;;2.30;99.90;;;;;;6126936;23;20053;-85
2023/03/09 04:44:25;;;;;;;19.48;9.93;;;2.30;99.90;;;;;;6151908;23;20338;-86
2023/03/09 04:46:51;;;;;;;16.85;8.63;;;2.30;99.90;;;;;;6126329;23;20541;-85
2023/03/09 04:49:17;;;;;;;18.13;8.95;;;2.40;99.90;;;;;;6126579;23;20021;-86
2023/03/09 04:51:42;;;;;;;15.98;9.13;;;2.30;99.90;;;;;;6126504;23;20045;-85
2023/03/09 04:54:08;;;;;;;17.55;9.65;;;2.40;99.90;;;;;;6151613;23;20334;-86
2023/03/09 04:56:33;;;;;;;17.90;8.70;;;2.30;99.90;;;;;;6151548;23;20018;-86
2023/03/09 04:58:59;;;;;;;15.80;8.65;;;2.30;99.90;;;;;;6126290;23;20065;-86
2023/03/09 05:01:25;;;;;;;14.18;7.05;;;2.30;99.90;;;;;;6151543;23;20496;-86
2023/03/09 05:03:50;;;;;;;16.83;7.72;;;2.30;99.90;;;;;;6152128;23;20056;-85
2023/03/09 05:06:16;;;;;;;16.73;8.73;;;2.30;99.90;;;;;;6129266;23;20089;-86
2023/03/09 05:08:41;;;;;;;15.90;8.10;;;2.30;99.90;;;;;;6128189;23;20025;-86
2023/03/09 05:11:07;;;;;;;15.15;7.65;;;2.30;99.90;;;;;;6152499;23;20469;-87
2023/03/09 05:13:32;;;;;;;15.98;7.22;;;2.30;99.90;;;;;;6152594;23;20050;-86
2023/03/09 05:15:58;;;;;;;14.27;7.78;;;2.30;99.90;;;;;;6152103;23;20018;-86
2023/03/09 05:18:24;;;;;;;16.00;7.70;;;2.30;99.90;;;;;;6152067;23;20021;-86
2023/03/09 05:20:49;;;;;;;16.67;8.30;;;2.30;99.90;;;;;;6152022;23;20027;-87
2023/03/09 05:23:15;;;;;;;16.42;8.10;;;2.30;99.90;;;;;;6152914;23;20017;-87
2023/03/09 05:25:40;;;;;;;16.33;7.63;;;2.30;99.90;;;;;;6128412;23;20511;-87
2023/03/09 05:28:06;;;;;;;15.30;7.22;;;2.30;99.90;;;;;;6152628;23;20028;-85
2023/03/09 05:30:32;;;;;;;14.32;7.05;;;2.30;99.90;;;;;;6153554;23;20377;-86
2023/03/09 05:32:58;;;;;;;15.13;7.70;;;2.30;99.90;;;;;;6127839;23;20009;-86
2023/03/09 05:35:23;;;;;;;15.43;7.68;;;2.30;99.90;;;;;;6152027;23;20104;-86
2023/03/09 05:37:49;;;;;;;16.10;8.35;;;2.30;99.90;;;;;;6152889;23;20013;-86
2023/03/09 05:40:18;;;;;;;15.73;8.05;;;2.30;99.90;;;;;;6152782;23;20075;-86
2023/03/09 05:42:43;;;;;;;15.55;8.05;;;2.30;99.90;;;;;;6153187;23;20017;-86
2023/03/09 05:45:09;;;;;;;15.77;7.20;;;2.30;99.90;;;;;;6151879;23;20016;-86
2023/03/09 05:47:35;;;;;;;16.20;7.82;;;2.30;99.90;;;;;;6151629;23;20049;-86
2023/03/09 05:50:01;;;;;;;16.35;7.65;;;2.30;99.90;;;;;;6151946;23;20017;-86
2023/03/09 05:52:27;;;;;;;16.95;8.73;;;2.30;99.90;;;;;;6151665;23;20014;-86
2023/03/09 05:54:52;;;;;;;17.75;8.30;;;2.30;99.90;;;;;;6153295;23;20096;-86
2023/03/09 05:57:18;;;;;;;16.08;8.68;;;2.30;99.90;;;;;;6128049;23;20052;-86
2023/03/09 05:59:46;;;;;;;16.42;7.25;;;2.30;99.90;;;;;;6152550;23;20032;-86
2023/03/09 06:02:12;;;;;;;14.82;7.07;;;2.30;99.90;;;;;;6153243;23;20045;-86
2023/03/09 06:04:37;;;;;;;15.90;7.78;;;2.30;99.90;;;;;;6128130;23;20025;-86
2023/03/09 06:07:03;;;;;;;16.73;7.25;;;2.30;99.90;;;;;;6152431;23;20044;-86
2023/03/09 06:09:29;;;;;;;17.50;7.38;;;2.30;99.90;;;;;;6151925;23;20009;-87
2023/03/09 06:11:54;;;;;;;16.08;8.82;;;2.30;99.90;;;;;;6126585;23;20017;-86
2023/03/09 06:14:20;;;;;;;16.38;8.02;;;2.30;99.90;;;;;;6151909;23;20024;-86
2023/03/09 06:16:45;;;;;;;15.85;8.27;;;2.30;99.90;;;;;;6127186;23;20060;-86
2023/03/09 06:19:11;;;;;;;15.48;7.20;;;2.30;99.90;;;;;;6151347;23;20017;-87
2023/03/09 06:21:37;;;;;;;16.65;8.65;;;2.40;99.90;;;;;;6153160;23;20017;-86
2023/03/09 06:24:03;;;;;;;16.40;7.85;;;2.40;99.90;;;;;;6128130;23;20071;-86
2023/03/09 06:26:28;;;;;;;15.77;8.00;;;2.40;99.90;;;;;;6152606;23;20103;-86
2023/03/09 06:28:57;;;;;;;17.17;8.57;;;2.40;99.90;;;;;;6154334;23;20029;-86
2023/03/09 06:31:23;;;;;;;16.17;8.20;;;2.40;99.90;;;;;;6151589;23;20060;-86
2023/03/09 06:33:48;;;;;;;16.48;8.40;;;2.40;99.90;;;;;;6128397;23;20013;-87
2023/03/09 06:36:17;;;;;;;15.38;7.82;;;2.40;99.90;;;;;;6152741;23;20023;-87
2023/03/09 06:38:42;;;;;;;18.20;9.45;;;2.40;99.90;;;;;;6152238;23;20013;-87
2023/03/09 06:41:08;;;;;;;17.02;8.27;;;2.40;99.90;;;;;;6152943;23;20048;-87
2023/03/09 06:43:34;;;;;;;17.17;8.35;;;2.40;99.90;;;;;;6127702;23;20137;-87
2023/03/09 06:46:00;;;;;;;17.80;9.10;;;2.50;99.90;;;;;;6152495;23;20072;-87
2023/03/09 06:48:25;;;;;;;18.98;9.23;;;2.50;99.90;;;;;;6128044;23;20020;-87
2023/03/09 06:50:51;;;;;;;17.95;9.43;;;2.50;99.90;;;;;;6152187;23;20019;-87
2023/03/09 06:53:17;;;;;;;16.98;8.27;;;2.50;99.90;;;;;;6129547;23;20018;-87
2023/03/09 06:55:43;;;;;;;18.42;9.40;;;2.50;99.90;;;;;;6152045;23;20064;-87
2023/03/09 06:58:09;;;;;;;20.10;10.32;;;2.50;99.90;;;;;;6151533;23;20104;-87
2023/03/09 07:00:37;;;;;;;17.42;8.90;;;2.50;99.90;;;;;;6152335;23;20017;-87
2023/03/09 07:03:06;;;;;;;19.42;9.95;;;2.50;99.90;;;;;;6126687;23;20025;-87
2023/03/09 07:05:32;;;;;;;15.85;8.48;;;2.50;99.90;;;;;;6152551;23;20014;-87
2023/03/09 07:07:57;;;;;;;19.92;10.82;;;2.50;99.90;;;;;;6127689;23;20014;-86
2023/03/09 07:10:23;;;;;;;18.63;9.35;;;2.50;99.90;;;;;;6151988;23;20017;-87
2023/03/09 07:12:49;;;;;;;20.38;10.18;;;2.60;99.90;;;;;;6127454;23;20465;-87
2023/03/09 07:15:15;;;;;;;20.80;9.57;;;2.60;99.90;;;;;;6150807;23;20020;-87
2023/03/09 07:17:42;;;;;;;18.45;10.20;;;2.70;99.90;;;;;;6127326;23;20130;-87
2023/03/09 07:20:09;;;;;;;19.88;10.02;;;2.70;99.90;;;;;;6151869;23;20449;-87
2023/03/09 07:22:35;;;;;;;19.80;10.15;;;2.70;99.90;;;;;;6151224;23;20528;-86
2023/03/09 07:25:00;;;;;;;18.83;10.85;;;2.70;99.90;;;;;;6152094;23;20017;-87
2023/03/09 07:27:26;;;;;;;17.45;9.57;;;2.80;99.90;;;;;;6150923;23;20021;-87
2023/03/09 07:29:52;;;;;;;19.90;9.95;;;2.80;99.90;;;;;;6151988;23;20100;-87
2023/03/09 07:32:18;;;;;;;19.42;10.32;;;2.90;99.90;;;;;;6151692;23;20009;-87
2023/03/09 07:34:43;;;;;;;18.02;9.50;;;2.90;99.90;;;;;;6125808;23;20097;-87
2023/03/09 07:37:09;;;;;;;16.70;9.05;;;2.90;99.90;;;;;;6152169;23;20021;-86
2023/03/09 07:39:35;;;;;;;18.65;9.45;;;3.00;99.90;;;;;;6151931;23;20014;-87
2023/03/09 07:42:00;;;;;;;17.88;10.10;;;3.00;99.90;;;;;;6126892;23;20014;-87
2023/03/09 07:44:28;;;;;;;19.10;9.57;;;3.00;99.90;;;;;;6152378;23;20024;-87
2023/03/09 07:46:53;;;;;;;15.75;9.00;;;3.00;99.90;;;;;;6152017;23;20012;-87
2023/03/09 07:49:19;;;;;;;17.08;9.98;;;3.00;99.90;;;;;;6150663;23;20084;-87
2023/03/09 07:51:45;;;;;;;19.40;10.35;;;3.10;99.90;;;;;;6127821;23;20453;-87
2023/03/09 07:54:11;;;;;;;21.17;10.73;;;3.10;99.90;;;;;;6152448;23;20017;-87
2023/03/09 07:56:36;;;;;;;20.13;10.48;;;3.20;99.90;;;;;;6151774;23;20031;-87
2023/03/09 07:59:02;;;;;;;17.75;8.93;;;3.20;99.90;;;;;;6126615;23;20361;-87
2023/03/09 08:01:28;;;;;;;18.60;10.00;;;3.20;99.90;;;;;;6126734;23;20084;-87
2023/03/09 08:03:53;;;;;;;19.83;10.07;;;3.30;99.90;;;;;;6151834;23;20584;-87
2023/03/09 08:06:19;;;;;;;17.55;9.55;;;3.30;99.90;;;;;;6152457;23;20010;-87
2023/03/09 08:08:46;;;;;;;20.88;10.60;;;3.30;99.90;;;;;;6150425;23;20021;-87
2023/03/09 08:11:12;;;;;;;19.75;9.80;;;3.30;99.90;;;;;;6152210;23;20040;-87
2023/03/09 08:13:38;;;;;;;18.73;9.23;;;3.30;99.90;;;;;;6151790;23;20359;-87
2023/03/09 08:16:07;;;;;;;18.25;8.82;;;3.30;99.90;;;;;;6152060;23;20469;-87
2023/03/09 08:18:32;;;;;;;18.08;10.18;;;3.40;99.90;;;;;;6152015;23;20096;-87
2023/03/09 08:21:10;;;;;;;17.90;9.60;;;3.30;99.90;;;;;;6127359;23;20400;-87
2023/03/09 08:23:39;;;;;;;19.20;9.38;;;3.40;99.90;;;;;;6151953;23;20021;-88
2023/03/09 08:26:06;;;;;;;20.50;11.20;;;3.40;99.90;;;;;;6127578;23;20020;-87
2023/03/09 08:28:32;;;;;;;18.98;10.90;;;3.40;99.90;;;;;;6125922;23;20037;-87
2023/03/09 08:30:58;;;;;;;18.92;9.65;;;3.40;99.90;;;;;;6152343;23;20096;-87
2023/03/09 08:33:24;;;;;;;18.65;10.23;;;3.50;99.90;;;;;;6127245;23;20412;-87
2023/03/09 08:35:50;;;;;;;19.05;10.15;;;3.50;99.90;;;;;;6151619;23;20096;-88
2023/03/09 08:38:15;;;;;;;18.77;9.75;;;3.50;99.90;;;;;;6128667;23;20022;-87
2023/03/09 08:40:41;;;;;;;19.23;10.52;;;3.50;99.90;;;;;;6128173;23;20017;-87
2023/03/09 08:43:07;;;;;;;18.50;9.57;;;3.50;99.90;;;;;;6153195;23;20104;-87
2023/03/09 08:45:33;;;;;;;19.17;10.50;;;3.50;99.90;;;;;;6153594;23;20037;-87
2023/03/09 08:47:58;;;;;;;19.27;11.30;;;3.50;99.90;;;;;;6152564;23;20400;-87
2023/03/09 08:50:24;;;;;;;22.65;11.40;;;3.60;99.90;;;;;;6153629;23;20020;-87
2023/03/09 08:52:50;;;;;;;23.23;11.23;;;3.60;99.90;;;;;;6128265;23;20483;-87
2023/03/09 08:55:15;;;;;;;21.25;10.45;;;3.60;99.90;;;;;;6129351;23;20461;-87
2023/03/09 08:57:41;;;;;;;18.67;9.48;;;3.60;99.90;;;;;;6153735;23;20176;-87
2023/03/09 09:00:09;;;;;;;18.55;9.10;;;3.70;99.90;;;;;;6153394;23;20021;-87
2023/03/09 09:02:36;;;;;;;17.95;10.05;;;3.70;99.90;;;;;;6129646;23;20065;-87
2023/03/09 09:05:02;;;;;;;20.08;10.40;;;3.80;99.90;;;;;;6153419;23;20060;-87
2023/03/09 09:07:29;;;;;;;20.30;11.18;;;3.80;99.90;;;;;;6128922;23;20469;-87
2023/03/09 09:09:55;;;;;;;18.48;9.50;;;3.80;99.90;;;;;;6152115;23;20040;-87
2023/03/09 09:12:21;;;;;;;20.70;10.50;;;3.90;99.90;;;;;;6126715;23;20013;-88
2023/03/09 09:14:46;;;;;;;18.98;9.60;;;3.90;99.90;;;;;;6151923;23;20021;-88
2023/03/09 09:17:12;;;;;;;19.50;10.23;;;3.90;99.90;;;;;;6127428;23;20513;-87
2023/03/09 09:19:39;;;;;;;18.45;10.05;;;4.00;99.90;;;;;;6152913;23;20017;-88
2023/03/09 09:22:06;;;;;;;18.73;9.35;;;4.00;99.90;;;;;;6129037;23;20055;-88
2023/03/09 09:24:35;;;;;;;19.50;9.85;;;4.00;99.90;;;;;;6152917;23;20377;-88
2023/03/09 09:27:05;;;;;;;20.10;10.18;;;4.10;99.90;;;;;;6153575;23;20020;-88
2023/03/09 09:29:35;;;;;;;21.85;10.63;;;4.10;99.90;;;;;;6152474;23;20049;-87
2023/03/09 09:32:03;;;;;;;18.77;9.98;;;4.10;99.90;;;;;;6153542;23;20017;-87
2023/03/09 09:34:33;;;;;;;18.73;10.55;;;4.20;99.90;;;;;;6153681;23;20505;-88
2023/03/09 09:37:02;;;;;;;22.08;11.18;;;4.20;99.90;;;;;;6128681;23;20021;-89
2023/03/09 09:39:29;;;;;;;19.42;10.68;;;4.20;99.90;;;;;;6128290;23;20028;-88
2023/03/09 09:42:01;;;;;;;20.20;10.00;;;4.20;99.90;;;;;;6127457;23;20075;-88
2023/03/09 09:44:41;;;;;;;20.42;10.95;;;4.20;99.90;;;;;;6128686;23;20480;-87
2023/03/09 09:47:13;;;;;;;18.52;10.23;;;4.20;99.90;;;;;;6152716;23;20021;-88
2023/03/09 09:49:43;;;;;;;19.20;10.70;;;4.30;99.90;;;;;;6151995;23;20016;-88
2023/03/09 09:52:28;;;;;;;20.40;11.80;;;4.30;99.90;;;;;;6128071;23;20393;-88
2023/03/09 09:55:03;;;;;;;20.23;11.23;;;4.30;99.90;;;;;;6128150;23;20105;-88
2023/03/09 09:57:43;;;;;;;19.25;10.68;;;4.30;99.90;;;;;;6153264;23;20401;-88
2023/03/09 10:00:21;;;;;;;21.60;11.68;;;4.30;99.90;;;;;;6128593;23;20048;-88
2023/03/09 10:03:12;;;;;;;19.77;10.45;;;4.40;99.90;;;;;;6153748;23;20024;-88
2023/03/09 10:05:53;;;;;;;18.90;10.25;;;4.40;99.90;;;;;;6128736;23;20056;-88
2023/03/09 10:08:46;;;;;;;22.85;11.15;;;4.40;99.90;;;;;;6152592;23;20400;-88
2023/03/09 10:11:22;;;;;;;18.85;10.25;;;4.40;99.90;;;;;;6128936;23;20016;-88
2023/03/09 10:14:16;;;;;;;21.38;9.82;;;4.40;99.90;;;;;;6152998;23;20048;-87
2023/03/09 10:16:53;;;;;;;20.23;11.13;;;4.40;99.90;;;;;;6153637;23;20021;-88
2023/03/09 10:19:29;;;;;;;17.98;9.88;;;4.40;99.90;;;;;;6151629;23;20021;-88
2023/03/09 10:21:57;;;;;;;21.48;10.82;;;4.40;99.90;;;;;;6152660;23;20358;-88
2023/03/09 10:24:26;;;;;;;20.50;11.30;;;4.50;99.90;;;;;;6127255;23;20044;-87
2023/03/09 10:26:58;;;;;;;21.27;11.90;;;4.50;99.90;;;;;;6152726;23;20020;-88
2023/03/09 10:29:34;;;;;;;20.55;11.55;;;4.50;99.90;;;;;;6128367;23;20093;-88
2023/03/09 10:32:07;;;;;;;21.65;11.98;;;4.50;99.90;;;;;;6125570;23;20092;-88
2023/03/09 10:34:40;;;;;;;20.75;11.32;;;4.50;99.90;;;;;;6151304;23;20017;-88
2023/03/09 10:37:16;;;;;;;20.63;11.73;;;4.60;99.90;;;;;;6151172;23;20096;-88
2023/03/09 10:39:46;;;;;;;20.63;11.10;;;4.70;99.90;;;;;;6127235;23;20021;-88
2023/03/09 10:42:24;;;;;;;19.77;11.40;;;4.70;99.90;;;;;;6127133;23;20021;-88
2023/03/09 10:45:01;;;;;;;20.15;11.23;;;4.70;99.90;;;;;;6152189;23;20016;-88
2023/03/09 10:47:47;;;;;;;19.08;10.93;;;4.80;99.90;;;;;;6126407;23;20021;-87
2023/03/09 10:50:15;;;;;;;20.23;10.73;;;4.80;99.90;;;;;;6125855;23;20060;-87
2023/03/09 10:52:41;;;;;;;18.40;10.25;;;4.80;99.90;;;;;;6151658;23;20029;-88
2023/03/09 10:55:33;;;;;;;20.55;11.75;;;4.80;99.90;;;;;;6151196;23;20053;-88
2023/03/09 10:58:01;;;;;;;19.75;10.80;;;4.80;99.90;;;;;;6150753;23;20013;-89
2023/03/09 11:00:27;;;;;;;21.00;11.18;;;4.80;99.90;;;;;;6126890;23;20022;-88
2023/03/09 11:02:56;;;;;;;20.52;11.02;;;4.80;99.90;;;;;;6151517;23;20454;-89
2023/03/09 11:05:25;;;;;;;19.33;11.88;;;4.90;99.90;;;;;;6151900;23;20039;-88
2023/03/09 11:07:53;;;;;;;21.23;11.38;;;4.90;99.90;;;;;;6151723;23;20084;-88
2023/03/09 11:10:28;;;;;;;20.23;11.43;;;5.00;99.90;;;;;;6127711;23;20037;-87
2023/03/09 11:12:55;;;;;;;18.85;11.15;;;5.00;99.90;;;;;;6126710;23;20017;-87
2023/03/09 11:15:33;;;;;;;21.42;11.18;;;5.00;99.90;;;;;;6151978;23;20642;-88
2023/03/09 11:18:00;;;;;;;20.85;11.85;;;5.00;99.90;;;;;;6126091;23;20531;-88
2023/03/09 11:20:29;;;;;;;20.45;11.70;;;5.00;99.90;;;;;;6151647;23;20048;-88
2023/03/09 11:23:00;;;;;;;20.30;11.27;;;5.00;99.90;;;;;;6151845;23;20353;-87
2023/03/09 11:25:49;;;;;;;19.45;11.43;;;5.10;99.90;;;;;;6126593;23;20068;-88
2023/03/09 11:28:25;;;;;;;19.65;11.48;;;5.00;99.90;;;;;;6127097;23;20014;-88
2023/03/09 11:30:55;;;;;;;18.90;11.00;;;5.00;99.90;;;;;;6126802;23;20020;-87
2023/03/09 11:33:20;;;;;;;21.65;11.60;;;5.00;99.90;;;;;;6151537;23;20017;-88
2023/03/09 11:35:50;;;;;;;18.77;10.70;;;5.00;99.90;;;;;;6127398;23;20382;-87
2023/03/09 11:38:19;;;;;;;19.88;10.88;;;5.00;99.90;;;;;;6150401;23;20017;-87
2023/03/09 11:40:46;;;;;;;22.52;12.63;;;5.00;99.90;;;;;;6127286;23;20032;-89
2023/03/09 11:43:21;;;;;;;20.65;11.38;;;5.00;99.90;;;;;;6127273;23;20025;-88
2023/03/09 11:45:47;;;;;;;22.23;11.75;;;5.10;99.90;;;;;;6151472;23;20021;-88
2023/03/09 11:48:30;;;;;;;19.65;10.80;;;5.10;99.90;;;;;;6126616;23;20013;-88
2023/03/09 11:51:04;;;;;;;20.25;10.75;;;5.10;99.90;;;;;;6151900;23;20386;-89
2023/03/09 11:53:33;;;;;;;20.75;11.13;;;5.10;99.90;;;;;;6151720;23;20064;-89
2023/03/09 11:56:25;;;;;;;19.58;11.52;;;5.10;99.90;;;;;;6151493;23;20100;-89
2023/03/09 11:59:07;;;;;;;21.25;10.75;;;5.10;99.90;;;;;;6126493;23;20022;-89
2023/03/09 12:01:59;;;;;;;20.90;12.98;;;5.10;99.90;;;;;;6152285;23;20045;-89
2023/03/09 12:04:24;;;;;;;21.80;12.10;;;5.10;99.90;;;;;;6135367;23;20088;-89
2023/03/09 12:07:00;;;;;;;20.35;11.68;;;5.10;99.90;;;;;;6127430;23;20018;-89
2023/03/09 12:09:56;;;;;;;21.25;12.25;;;5.10;99.90;;;;;;6151096;23;20024;-89
2023/03/09 12:12:33;;;;;;;20.95;11.88;;;5.10;99.90;;;;;;6097107;23;20076;-89
2023/03/09 12:15:16;;;;;;;21.27;11.98;;;5.10;99.90;;;;;;6129223;23;20018;-89
2023/03/09 12:17:54;;;;;;;22.20;12.27;;;5.10;99.90;;;;;;6128646;23;20013;-88
2023/03/09 12:20:33;;;;;;;21.85;12.15;;;5.10;99.90;;;;;;6153824;23;20024;-89
2023/03/09 12:22:59;;;;;;;21.25;12.35;;;5.10;99.90;;;;;;6153139;23;20021;-88
2023/03/09 12:25:26;;;;;;;20.58;11.00;;;5.20;99.90;;;;;;6152194;23;20010;-88
2023/03/09 12:28:01;;;;;;;20.60;11.77;;;5.20;99.90;;;;;;6127039;23;20020;-88
2023/03/09 12:30:33;;;;;;;20.20;11.30;;;5.20;99.90;;;;;;6129625;23;20024;-88
2023/03/09 12:33:01;;;;;;;20.95;10.93;;;5.20;99.90;;;;;;6129545;23;20060;-89
2023/03/09 12:35:26;;;;;;;18.73;10.95;;;5.20;99.90;;;;;;6129173;23;20382;-88
2023/03/09 12:37:59;;;;;;;19.70;10.95;;;5.30;99.90;;;;;;6154396;23;20017;-87
2023/03/09 12:40:25;;;;;;;;;;;5.20;99.90;;;;;;6155059;23;20490;-88
2023/03/09 12:42:56;;;;;;;23.00;11.88;;;5.20;99.90;;;;;;6154583;23;19999;-88
2023/03/09 12:45:31;;;;;;;22.02;13.32;;;5.30;99.90;;;;;;6130027;23;20013;-88
2023/03/09 12:48:11;;;;;;;19.98;10.50;;;5.30;99.90;;;;;;6153877;23;20017;-88
2023/03/09 12:50:42;;;;;;;20.55;12.25;;;5.30;99.90;;;;;;6154529;23;20017;-88